Time;durP1;ratioP1;P1;durP2;ratioP2;P2;SDS_P1;SDS_P2;PMS_P1;PMS_P2;Temp;Humidity;BMP_temperature;BMP_pressure;BME280_temperature;BME280_humidity;BME280_pressure;Samples;Min_cycle;Max_cycle;Signal;HPM_P1;HPM_P2
2021/08/14 00:01:05;;;;;;;9.10;8.27;;;22.40;1.00;;;;;;5081704;28;21068;-78
2021/08/14 00:03:33;;;;;;;9.07;8.20;;;22.40;1.00;;;;;;5087698;28;20451;-75
2021/08/14 00:06:00;;;;;;;8.57;7.70;;;22.30;1.00;;;;;;5086855;28;20537;-77
2021/08/14 00:08:27;;;;;;;8.40;7.60;;;22.30;1.00;;;;;;5088891;28;20455;-76
2021/08/14 00:10:54;;;;;;;8.90;8.03;;;22.30;1.00;;;;;;5069800;28;20412;-77
2021/08/14 00:13:20;;;;;;;9.40;8.33;;;22.30;1.00;;;;;;5094493;28;20457;-75
2021/08/14 00:15:48;;;;;;;9.63;8.70;;;22.20;1.00;;;;;;5086836;28;20456;-78
2021/08/14 00:18:15;;;;;;;10.90;9.27;;;22.20;1.00;;;;;;5079943;28;20443;-75
2021/08/14 00:20:46;;;;;;;9.13;8.30;;;22.10;1.00;;;;;;5076493;28;20466;-76
2021/08/14 00:23:12;;;;;;;8.77;7.80;;;22.10;1.00;;;;;;5080514;28;20965;-79
2021/08/14 00:25:39;;;;;;;8.90;8.00;;;22.10;1.00;;;;;;5078841;28;20537;-78
2021/08/14 00:28:06;;;;;;;9.80;8.57;;;22.00;1.00;;;;;;5079245;28;20447;-76
2021/08/14 00:30:33;;;;;;;10.07;7.70;;;22.00;1.00;;;;;;5078676;28;20486;-78
2021/08/14 00:32:59;;;;;;;10.10;8.17;;;22.00;1.00;;;;;;5080525;28;20815;-77
2021/08/14 00:35:26;;;;;;;7.97;7.07;;;22.00;1.00;;;;;;5083286;28;21694;-77
2021/08/14 00:37:54;;;;;;;7.67;7.00;;;21.90;1.00;;;;;;5081448;28;20469;-77
2021/08/14 00:40:21;;;;;;;7.87;7.17;;;21.90;1.00;;;;;;5078838;28;20413;-77
2021/08/14 00:42:48;;;;;;;8.57;7.77;;;21.90;1.00;;;;;;5077358;28;20552;-77
2021/08/14 00:45:14;;;;;;;9.03;8.20;;;21.90;1.00;;;;;;5087454;28;20880;-76
2021/08/14 00:47:42;;;;;;;8.23;7.40;;;21.80;1.00;;;;;;5089082;28;21681;-79
2021/08/14 00:50:10;;;;;;;7.93;7.13;;;21.80;1.00;;;;;;5063829;28;20550;-77
2021/08/14 00:52:37;;;;;;;7.50;6.57;;;21.80;1.00;;;;;;5082649;28;20445;-76
2021/08/14 00:55:06;;;;;;;9.07;7.40;;;21.80;1.00;;;;;;5082038;28;20449;-76
2021/08/14 00:57:37;;;;;;;23.40;17.43;;;21.80;1.00;;;;;;5083913;28;21664;-77
2021/08/14 01:00:04;;;;;;;10.83;8.47;;;21.80;1.00;;;;;;5080784;28;20573;-77
2021/08/14 01:02:31;;;;;;;7.80;7.07;;;21.80;1.00;;;;;;5086976;28;20475;-76
2021/08/14 01:04:58;;;;;;;9.40;6.80;;;21.80;1.00;;;;;;5089480;28;20422;-76
2021/08/14 01:07:26;;;;;;;7.90;7.20;;;21.70;1.00;;;;;;5091264;28;20483;-76
2021/08/14 01:09:53;;;;;;;7.80;6.97;;;21.70;1.00;;;;;;5075304;28;20983;-75
2021/08/14 01:12:21;;;;;;;7.70;6.90;;;21.70;1.00;;;;;;5096679;28;20541;-76
2021/08/14 01:14:49;;;;;;;8.67;7.87;;;21.60;1.00;;;;;;5095865;28;20453;-76
2021/08/14 01:17:17;;;;;;;9.30;8.33;;;21.50;1.00;;;;;;5101794;28;20487;-75
2021/08/14 01:19:44;;;;;;;8.20;7.40;;;21.40;1.00;;;;;;5098307;28;20401;-76
2021/08/14 01:22:12;;;;;;;7.87;6.80;;;21.30;1.00;;;;;;5102776;28;21375;-77
2021/08/14 01:24:43;;;;;;;8.40;7.50;;;21.20;1.00;;;;;;5095809;28;20424;-75
2021/08/14 01:27:14;;;;;;;7.47;6.60;;;21.10;1.00;;;;;;5094669;28;20435;-75
2021/08/14 01:29:41;;;;;;;8.70;7.70;;;21.10;1.00;;;;;;5098912;28;20404;-75
2021/08/14 01:32:09;;;;;;;7.37;6.53;;;21.00;1.00;;;;;;5097663;28;20423;-76
2021/08/14 01:34:37;;;;;;;10.60;8.10;;;21.00;1.00;;;;;;5102652;28;20468;-75
2021/08/14 01:37:05;;;;;;;9.43;6.63;;;20.90;1.00;;;;;;5102116;28;20467;-75
2021/08/14 01:39:32;;;;;;;11.10;7.07;;;20.80;1.00;;;;;;5108257;28;20501;-74
2021/08/14 01:42:01;;;;;;;7.87;6.97;;;20.80;1.00;;;;;;5099950;28;20463;-78
2021/08/14 01:44:31;;;;;;;7.40;6.33;;;20.70;1.00;;;;;;5108033;28;20420;-78
2021/08/14 01:46:58;;;;;;;9.40;8.60;;;20.60;1.00;;;;;;5108431;27;20409;-76
2021/08/14 01:49:25;;;;;;;6.10;5.50;;;20.60;1.00;;;;;;5105041;28;20388;-79
2021/08/14 01:51:52;;;;;;;7.93;6.50;;;20.60;1.00;;;;;;5104516;27;20428;-76
2021/08/14 01:54:20;;;;;;;7.57;5.90;;;20.50;1.00;;;;;;5104659;27;20418;-75
2021/08/14 01:56:49;;;;;;;7.03;6.33;;;20.40;1.00;;;;;;5108754;27;20417;-77
2021/08/14 01:59:16;;;;;;;7.27;5.67;;;20.40;1.00;;;;;;5104918;27;20424;-74
2021/08/14 02:01:44;;;;;;;6.37;5.70;;;20.30;1.00;;;;;;5103788;27;20691;-74
2021/08/14 02:04:11;;;;;;;7.50;6.03;;;20.30;1.00;;;;;;5105538;28;20425;-75
2021/08/14 02:06:42;;;;;;;7.00;5.67;;;20.30;1.00;;;;;;5107631;27;20572;-76
2021/08/14 02:09:08;;;;;;;8.57;6.30;;;20.20;1.00;;;;;;5107046;27;20423;-77
2021/08/14 02:11:37;;;;;;;7.57;6.10;;;20.20;1.00;;;;;;5106756;28;20437;-76
2021/08/14 02:14:05;;;;;;;8.73;6.63;;;20.10;1.00;;;;;;5105167;27;20399;-76
2021/08/14 02:16:36;;;;;;;7.03;6.33;;;20.10;1.00;;;;;;5106549;27;20439;-76
2021/08/14 02:19:05;;;;;;;7.90;6.43;;;20.00;1.00;;;;;;5107945;27;20451;-75
2021/08/14 02:21:32;;;;;;;7.50;6.73;;;20.00;1.00;;;;;;5105468;27;20439;-76
2021/08/14 02:24:01;;;;;;;7.17;6.47;;;20.00;1.00;;;;;;5107316;27;20432;-74
2021/08/14 02:26:31;;;;;;;8.20;7.13;;;20.00;1.00;;;;;;5086293;28;20448;-76
2021/08/14 02:28:58;;;;;;;8.70;7.80;;;19.90;1.00;;;;;;5087906;28;20426;-74
2021/08/14 02:31:24;;;;;;;9.20;7.13;;;19.90;1.00;;;;;;5104652;27;20436;-75
2021/08/14 02:33:53;;;;;;;7.40;6.43;;;19.90;1.00;;;;;;5105982;27;20455;-75
2021/08/14 02:36:21;;;;;;;8.33;7.30;;;19.90;1.00;;;;;;5105685;27;20427;-74
2021/08/14 02:38:48;;;;;;;8.87;6.20;;;19.90;1.00;;;;;;5106113;28;20411;-74
2021/08/14 02:41:15;;;;;;;8.20;5.70;;;19.90;1.00;;;;;;5105192;28;20435;-75
2021/08/14 02:43:41;;;;;;;9.07;5.73;;;19.90;1.00;;;;;;5096233;28;20399;-74
2021/08/14 02:46:08;;;;;;;7.50;6.13;;;20.00;1.00;;;;;;5103455;27;20408;-74
2021/08/14 02:48:35;;;;;;;8.03;5.73;;;20.00;1.00;;;;;;5111514;28;20441;-75
2021/08/14 02:51:02;;;;;;;7.20;5.60;;;20.00;1.00;;;;;;5085758;28;20488;-75
2021/08/14 02:53:30;;;;;;;8.03;6.17;;;20.00;1.00;;;;;;5101136;28;21568;-75
2021/08/14 02:55:56;;;;;;;7.40;5.50;;;20.00;1.00;;;;;;5102672;28;20398;-74
2021/08/14 02:58:23;;;;;;;8.57;5.90;;;20.00;1.00;;;;;;5108248;27;20466;-75
2021/08/14 03:00:50;;;;;;;8.20;5.93;;;20.00;1.00;;;;;;5109507;27;21295;-75
2021/08/14 03:03:16;;;;;;;8.17;6.13;;;20.00;1.00;;;;;;5102624;27;20412;-73
2021/08/14 03:05:43;;;;;;;7.17;5.40;;;20.00;1.00;;;;;;5101165;27;20482;-74
2021/08/14 03:08:11;;;;;;;8.13;7.30;;;20.10;1.00;;;;;;5106629;27;20544;-74
2021/08/14 03:10:40;;;;;;;10.00;6.30;;;20.10;1.00;;;;;;5106720;27;20424;-75
2021/08/14 03:13:07;;;;;;;8.13;5.87;;;20.10;1.00;;;;;;5106797;27;20400;-74
2021/08/14 03:15:34;;;;;;;7.77;5.87;;;20.10;1.00;;;;;;5109156;27;20516;-77
2021/08/14 03:18:01;;;;;;;8.27;6.43;;;20.10;1.00;;;;;;5104057;28;20448;-75
2021/08/14 03:20:28;;;;;;;8.10;5.20;;;20.10;1.00;;;;;;5102357;28;20481;-75
2021/08/14 03:22:55;;;;;;;10.53;5.83;;;20.20;1.00;;;;;;5089732;28;20447;-75
2021/08/14 03:25:22;;;;;;;9.10;5.73;;;20.20;1.00;;;;;;5090074;28;20472;-76
2021/08/14 03:27:50;;;;;;;8.10;6.00;;;20.20;1.00;;;;;;5088134;28;20435;-75
2021/08/14 03:30:17;;;;;;;8.43;6.57;;;20.20;1.00;;;;;;5093377;28;20546;-73
2021/08/14 03:32:45;;;;;;;8.37;6.47;;;20.20;1.00;;;;;;5093109;28;20444;-76
2021/08/14 03:35:12;;;;;;;8.07;6.00;;;20.20;1.00;;;;;;5095201;28;20458;-75
2021/08/14 03:37:39;;;;;;;9.57;5.93;;;20.20;1.00;;;;;;5096683;28;20399;-76
2021/08/14 03:40:08;;;;;;;8.80;6.93;;;20.20;1.00;;;;;;5096328;28;20444;-75
2021/08/14 03:42:35;;;;;;;7.17;6.03;;;20.20;1.00;;;;;;5097461;28;20396;-75
2021/08/14 03:45:03;;;;;;;12.07;6.80;;;20.20;1.00;;;;;;5103665;27;20472;-76
2021/08/14 03:47:30;;;;;;;9.73;5.73;;;20.10;1.00;;;;;;5098441;27;20812;-75
2021/08/14 03:49:57;;;;;;;8.93;6.43;;;20.10;1.00;;;;;;5099086;28;20508;-75
2021/08/14 03:52:24;;;;;;;7.37;5.80;;;20.10;1.00;;;;;;5095671;28;20468;-74
2021/08/14 03:54:50;;;;;;;7.00;5.70;;;20.10;1.00;;;;;;5090244;28;20508;-76
2021/08/14 03:57:17;;;;;;;7.53;6.47;;;20.00;1.00;;;;;;5083760;28;20516;-77
2021/08/14 03:59:44;;;;;;;10.47;6.43;;;20.00;1.00;;;;;;5082888;28;20544;-75
2021/08/14 04:02:12;;;;;;;10.30;6.17;;;20.10;1.00;;;;;;5085786;28;20474;-76
2021/08/14 04:04:39;;;;;;;9.60;5.00;;;20.00;1.00;;;;;;5065346;28;20564;-77
2021/08/14 04:07:06;;;;;;;9.40;5.77;;;20.10;1.00;;;;;;5083955;28;20497;-77
2021/08/14 04:09:32;;;;;;;7.17;5.30;;;20.10;1.00;;;;;;5093052;28;21026;-75
2021/08/14 04:11:59;;;;;;;10.83;6.50;;;20.00;1.00;;;;;;5072729;28;20461;-76
2021/08/14 04:14:26;;;;;;;8.30;5.83;;;20.10;1.00;;;;;;5073790;28;21129;-77
2021/08/14 04:16:53;;;;;;;8.00;5.73;;;20.10;1.00;;;;;;5077145;28;20481;-76
2021/08/14 04:19:21;;;;;;;9.93;6.67;;;20.00;1.00;;;;;;5068644;28;20447;-75
2021/08/14 04:21:48;;;;;;;6.43;5.70;;;20.00;1.00;;;;;;5072777;28;20461;-75
2021/08/14 04:24:15;;;;;;;9.80;6.50;;;19.90;1.00;;;;;;5062146;28;20535;-78
2021/08/14 04:26:42;;;;;;;9.80;6.23;;;19.90;1.00;;;;;;5072203;28;20458;-76
2021/08/14 04:29:09;;;;;;;7.00;5.47;;;19.80;1.00;;;;;;5071029;28;20474;-75
2021/08/14 04:31:36;;;;;;;7.63;5.53;;;19.70;1.00;;;;;;5061933;28;20449;-76
2021/08/14 04:34:03;;;;;;;10.70;5.93;;;19.70;1.00;;;;;;5061585;28;20459;-74
2021/08/14 04:36:30;;;;;;;8.87;5.97;;;19.60;1.00;;;;;;5061254;28;21017;-76
2021/08/14 04:38:57;;;;;;;8.17;5.03;;;19.60;1.00;;;;;;5062876;28;21340;-75
2021/08/14 04:41:24;;;;;;;9.57;5.50;;;19.50;1.00;;;;;;5064748;28;20479;-74
2021/08/14 04:43:51;;;;;;;14.30;5.33;;;19.50;1.00;;;;;;5055146;28;20444;-74
2021/08/14 04:46:17;;;;;;;10.00;5.20;;;19.40;1.00;;;;;;5059104;28;20454;-75
2021/08/14 04:48:44;;;;;;;6.67;5.33;;;19.40;1.00;;;;;;5057783;28;20605;-77
2021/08/14 04:51:11;;;;;;;8.80;5.57;;;19.40;1.00;;;;;;5059843;28;20560;-77
2021/08/14 04:53:39;;;;;;;10.30;7.10;;;19.30;1.00;;;;;;5061115;28;21435;-75
2021/08/14 04:56:06;;;;;;;7.80;5.20;;;19.30;1.00;;;;;;5061048;28;20455;-76
2021/08/14 04:58:32;;;;;;;12.13;5.93;;;19.40;1.00;;;;;;5060810;28;20443;-76
2021/08/14 05:01:00;;;;;;;8.50;5.23;;;19.40;1.00;;;;;;5078943;28;20442;-75
2021/08/14 05:03:27;;;;;;;10.37;5.70;;;19.40;1.00;;;;;;5080189;28;20444;-76
2021/08/14 05:05:54;;;;;;;7.23;4.67;;;19.40;1.00;;;;;;5069499;28;21789;-79
2021/08/14 05:08:21;;;;;;;8.13;5.00;;;19.50;1.00;;;;;;5062163;28;22256;-76
2021/08/14 05:10:49;;;;;;;12.90;7.10;;;19.40;1.00;;;;;;5059020;28;20496;-77
2021/08/14 05:13:16;;;;;;;10.37;6.20;;;19.40;1.00;;;;;;5038325;28;21186;-79
2021/08/14 05:15:43;;;;;;;9.03;4.97;;;19.50;1.00;;;;;;5061394;28;20415;-76
2021/08/14 05:18:09;;;;;;;7.73;4.23;;;19.50;1.00;;;;;;5058704;28;20458;-75
2021/08/14 05:20:36;;;;;;;8.70;4.93;;;19.50;1.00;;;;;;5060932;28;20434;-76
2021/08/14 05:23:03;;;;;;;11.63;5.20;;;19.60;1.00;;;;;;5061595;28;20935;-79
2021/08/14 05:25:30;;;;;;;5.97;4.37;;;19.60;1.00;;;;;;5059850;28;20467;-78
2021/08/14 05:27:58;;;;;;;7.90;4.60;;;19.60;1.00;;;;;;5057835;28;20464;-77
2021/08/14 05:30:25;;;;;;;9.60;4.90;;;19.70;1.00;;;;;;5060654;28;20453;-78
2021/08/14 05:32:52;;;;;;;8.77;4.87;;;19.60;1.00;;;;;;5053376;28;20906;-76
2021/08/14 05:35:19;;;;;;;8.60;5.33;;;19.70;1.00;;;;;;5042749;28;20473;-77
2021/08/14 05:37:46;;;;;;;11.27;5.73;;;19.70;1.00;;;;;;5064406;28;20577;-78
2021/08/14 05:40:14;;;;;;;9.90;4.60;;;19.80;1.00;;;;;;5060547;28;20454;-74
2021/08/14 05:42:41;;;;;;;11.70;4.40;;;19.80;1.00;;;;;;5063432;28;20471;-74
2021/08/14 05:45:11;;;;;;;9.20;4.53;;;19.90;1.00;;;;;;5043454;28;20439;-75
2021/08/14 05:47:40;;;;;;;7.13;4.80;;;19.90;1.00;;;;;;5067196;28;20541;-76
2021/08/14 05:50:08;;;;;;;6.87;5.20;;;19.90;1.00;;;;;;5060333;28;20454;-76
2021/08/14 05:52:35;;;;;;;8.40;5.07;;;20.00;1.00;;;;;;5059057;28;20446;-75
2021/08/14 05:55:02;;;;;;;10.63;6.13;;;20.00;1.00;;;;;;5064200;28;22335;-74
2021/08/14 05:57:28;;;;;;;14.37;5.77;;;20.00;1.00;;;;;;5045466;28;20421;-75
2021/08/14 05:59:55;;;;;;;7.53;4.70;;;20.10;1.00;;;;;;5064096;28;20443;-79
2021/08/14 06:02:23;;;;;;;9.40;5.50;;;20.10;1.00;;;;;;5066978;28;20458;-79
2021/08/14 06:04:50;;;;;;;10.23;6.47;;;20.10;1.00;;;;;;5056355;28;20527;-76
2021/08/14 06:07:17;;;;;;;9.27;5.37;;;20.10;1.00;;;;;;5075182;28;20461;-75
2021/08/14 06:09:44;;;;;;;9.40;4.97;;;20.10;1.00;;;;;;5066151;28;20578;-77
2021/08/14 06:12:11;;;;;;;7.00;4.57;;;20.20;1.00;;;;;;5073610;28;20457;-77
2021/08/14 06:14:38;;;;;;;5.80;5.00;;;20.30;1.00;;;;;;5076218;28;20445;-77
2021/08/14 06:17:05;;;;;;;9.33;6.17;;;20.50;1.00;;;;;;5077798;28;20463;-76
2021/08/14 06:19:33;;;;;;;6.60;5.90;;;20.60;1.00;;;;;;5061176;28;22814;-77
2021/08/14 06:22:03;;;;;;;8.23;5.77;;;20.80;1.00;;;;;;5061620;28;20522;-77
2021/08/14 06:24:29;;;;;;;8.17;5.90;;;20.90;1.00;;;;;;5060320;28;20438;-79
2021/08/14 06:26:56;;;;;;;10.63;5.60;;;21.00;1.00;;;;;;5069508;28;20449;-79
2021/08/14 06:29:23;;;;;;;10.20;6.10;;;21.10;1.00;;;;;;5056066;28;21655;-78
2021/08/14 06:31:50;;;;;;;7.57;5.40;;;21.20;1.00;;;;;;5073442;28;20515;-77
2021/08/14 06:34:16;;;;;;;7.67;5.50;;;21.20;1.00;;;;;;5071258;28;20457;-79
2021/08/14 06:36:44;;;;;;;7.80;6.33;;;21.20;1.00;;;;;;5073281;28;20414;-79
2021/08/14 06:39:11;;;;;;;8.33;5.90;;;21.10;1.00;;;;;;5079899;28;20440;-79
2021/08/14 06:41:38;;;;;;;6.93;5.37;;;21.10;1.00;;;;;;5078705;28;21248;-79
2021/08/14 06:44:05;;;;;;;11.97;7.50;;;21.00;1.00;;;;;;5074923;28;20457;-78
2021/08/14 06:46:31;;;;;;;10.67;5.30;;;21.10;1.00;;;;;;5078472;28;22060;-77
2021/08/14 06:48:59;;;;;;;10.03;6.10;;;21.10;1.00;;;;;;5077495;28;21468;-79
2021/08/14 06:51:26;;;;;;;8.33;6.37;;;21.20;1.00;;;;;;5075146;28;20450;-78
2021/08/14 06:53:54;;;;;;;8.03;5.10;;;21.20;1.00;;;;;;5073065;28;20496;-80
2021/08/14 06:56:21;;;;;;;11.20;6.07;;;21.20;1.00;;;;;;5074672;28;20461;-78
2021/08/14 06:58:48;;;;;;;10.00;5.17;;;21.10;1.00;;;;;;5069832;28;20479;-77
2021/08/14 07:01:14;;;;;;;8.90;5.40;;;21.20;1.00;;;;;;5068965;28;20528;-77
2021/08/14 07:03:41;;;;;;;6.30;5.70;;;21.20;1.00;;;;;;5065026;28;20601;-78
2021/08/14 07:06:08;;;;;;;7.80;4.60;;;21.40;1.00;;;;;;5072997;28;20453;-77
2021/08/14 07:08:35;;;;;;;6.13;5.07;;;21.50;1.00;;;;;;5080651;28;20540;-77
2021/08/14 07:11:03;;;;;;;6.90;5.00;;;21.70;1.00;;;;;;5078014;28;20465;-77
2021/08/14 07:13:29;;;;;;;7.00;4.37;;;21.80;1.00;;;;;;5086714;28;20496;-77
2021/08/14 07:15:56;;;;;;;8.10;4.20;;;21.90;1.00;;;;;;5072295;28;20485;-79
2021/08/14 07:18:23;;;;;;;9.53;5.50;;;21.80;1.00;;;;;;5087005;28;20451;-79
2021/08/14 07:20:50;;;;;;;9.43;4.63;;;21.80;1.00;;;;;;5081699;28;20490;-79
2021/08/14 07:23:17;;;;;;;8.90;4.97;;;21.90;1.00;;;;;;5063162;28;20455;-77
2021/08/14 07:25:46;;;;;;;8.17;4.63;;;21.90;1.00;;;;;;5083852;28;20486;-78
2021/08/14 07:28:14;;;;;;;9.80;5.10;;;21.90;1.00;;;;;;5085111;28;20449;-78
2021/08/14 07:30:41;;;;;;;8.57;4.70;;;22.00;1.00;;;;;;5086203;28;20608;-77
2021/08/14 07:33:08;;;;;;;6.50;5.63;;;22.10;1.00;;;;;;5083467;28;20426;-77
2021/08/14 07:35:35;;;;;;;6.93;4.53;;;22.10;1.00;;;;;;5093599;28;20411;-76
2021/08/14 07:38:01;;;;;;;7.27;5.00;;;22.10;1.00;;;;;;5071576;28;20462;-78
2021/08/14 07:40:28;;;;;;;6.93;4.40;;;22.10;1.00;;;;;;5092487;28;20485;-80
2021/08/14 07:42:57;;;;;;;9.53;4.67;;;22.20;1.00;;;;;;5062374;28;21214;-79
2021/08/14 07:45:26;;;;;;;7.83;4.13;;;22.20;1.00;;;;;;5081138;28;21715;-79
2021/08/14 07:47:54;;;;;;;8.10;5.27;;;22.30;1.00;;;;;;5080917;28;20416;-79
2021/08/14 07:50:22;;;;;;;8.83;5.00;;;22.30;1.00;;;;;;5066520;28;20457;-79
2021/08/14 07:52:51;;;;;;;7.93;5.57;;;22.40;1.00;;;;;;5075885;28;20447;-77
2021/08/14 07:55:18;;;;;;;4.20;3.80;;;22.40;1.00;;;;;;5080528;28;20460;-77
2021/08/14 07:57:45;;;;;;;7.20;3.40;;;22.40;1.00;;;;;;5080853;28;20417;-80
2021/08/14 08:00:15;;;;;;;6.90;3.63;;;22.60;1.00;;;;;;5083444;28;20457;-78
2021/08/14 08:02:44;;;;;;;7.90;3.73;;;22.70;1.00;;;;;;5076879;28;20456;-79
2021/08/14 08:05:12;;;;;;;6.00;4.10;;;22.70;1.00;;;;;;5086472;28;20534;-77
2021/08/14 08:07:40;;;;;;;5.53;4.10;;;22.70;1.00;;;;;;5080971;28;20643;-78
2021/08/14 08:10:08;;;;;;;5.33;3.43;;;22.80;1.00;;;;;;5076685;28;20451;-77
2021/08/14 08:12:35;;;;;;;7.17;3.27;;;22.90;1.00;;;;;;5078867;28;21148;-77
2021/08/14 08:15:01;;;;;;;6.13;4.30;;;22.90;1.00;;;;;;5076918;28;20469;-77
2021/08/14 08:17:28;;;;;;;6.73;4.33;;;23.00;1.00;;;;;;5075038;28;20441;-80
2021/08/14 08:19:56;;;;;;;6.83;4.40;;;23.20;1.00;;;;;;5076307;28;20541;-79
2021/08/14 08:22:23;;;;;;;5.47;3.87;;;23.30;1.00;;;;;;5074720;28;20456;-79
2021/08/14 08:24:50;;;;;;;9.30;5.07;;;23.40;1.00;;;;;;5060540;28;20524;-77
2021/08/14 08:27:17;;;;;;;7.13;4.07;;;23.30;1.00;;;;;;5076700;28;20473;-76
2021/08/14 08:29:44;;;;;;;6.17;3.73;;;23.40;1.00;;;;;;5076056;28;20854;-78
2021/08/14 08:32:10;;;;;;;6.07;3.90;;;23.50;1.00;;;;;;5075329;28;20435;-79
2021/08/14 08:34:38;;;;;;;6.00;3.97;;;23.50;1.00;;;;;;5079527;28;21562;-80
2021/08/14 08:37:06;;;;;;;6.30;3.90;;;23.50;1.00;;;;;;5081468;28;20450;-80
2021/08/14 08:39:34;;;;;;;5.70;4.60;;;23.50;1.00;;;;;;5078819;28;21281;-80
2021/08/14 08:42:01;;;;;;;7.30;4.17;;;23.60;1.00;;;;;;5075663;28;20522;-79
2021/08/14 08:44:28;;;;;;;7.23;4.60;;;23.70;1.00;;;;;;5077662;28;20531;-79
2021/08/14 08:46:55;;;;;;;7.53;4.10;;;23.80;1.00;;;;;;5094006;28;20619;-78
2021/08/14 08:49:26;;;;;;;6.40;3.80;;;23.90;1.00;;;;;;5087568;28;20522;-80
2021/08/14 08:51:53;;;;;;;5.07;3.30;;;23.90;1.00;;;;;;5065550;28;20446;-79
2021/08/14 08:54:21;;;;;;;5.37;4.00;;;23.90;1.00;;;;;;5079234;28;20464;-79
2021/08/14 08:56:49;;;;;;;7.27;3.87;;;23.90;1.00;;;;;;5056743;28;20488;-79
2021/08/14 08:59:16;;;;;;;8.13;4.30;;;24.00;1.00;;;;;;5082526;28;20444;-79
2021/08/14 09:01:44;;;;;;;4.50;3.73;;;24.00;1.00;;;;;;5080588;28;20449;-79
2021/08/14 09:04:22;;;;;;;6.63;4.10;;;24.00;1.00;;;;;;5082295;28;20441;-79
2021/08/14 09:06:49;;;;;;;7.80;3.93;;;24.20;1.00;;;;;;5083277;28;20455;-79
2021/08/14 09:09:16;;;;;;;8.17;4.47;;;24.50;1.00;;;;;;5080968;28;20544;-79
2021/08/14 09:11:51;;;;;;;7.77;4.03;;;24.60;1.00;;;;;;5059559;28;20427;-78
2021/08/14 09:14:19;;;;;;;7.27;3.87;;;24.70;1.00;;;;;;5057199;28;20446;-78
2021/08/14 09:16:46;;;;;;;7.27;4.70;;;24.90;1.00;;;;;;5074773;28;20441;-79
2021/08/14 09:19:23;;;;;;;5.43;3.90;;;25.10;1.00;;;;;;5079904;28;20470;-80
2021/08/14 09:21:50;;;;;;;6.27;3.83;;;24.90;1.00;;;;;;5080076;28;20429;-80
2021/08/14 09:24:31;;;;;;;7.77;4.50;;;24.80;1.00;;;;;;5076204;28;20550;-80
2021/08/14 09:27:03;;;;;;;4.83;3.63;;;24.80;1.00;;;;;;5078829;28;20426;-79
2021/08/14 09:29:33;;;;;;;6.13;3.90;;;24.90;1.00;;;;;;5077308;28;21159;-80
2021/08/14 09:32:02;;;;;;;6.40;4.50;;;25.10;1.00;;;;;;5077795;28;20447;-80
2021/08/14 09:34:29;;;;;;;6.10;4.00;;;25.10;1.00;;;;;;5077858;28;20462;-80
2021/08/14 09:37:01;;;;;;;6.53;3.70;;;25.30;1.00;;;;;;5078898;28;20821;-79
2021/08/14 09:39:28;;;;;;;9.10;3.63;;;25.80;1.00;;;;;;5075961;28;20472;-80
2021/08/14 09:42:04;;;;;;;5.17;3.70;;;26.30;1.00;;;;;;5080060;28;20452;-80
2021/08/14 09:44:31;;;;;;;5.17;3.53;;;26.60;1.00;;;;;;5080108;28;20469;-79
2021/08/14 09:46:58;;;;;;;7.13;4.30;;;27.10;1.00;;;;;;5076462;28;20445;-79
2021/08/14 09:49:25;;;;;;;5.80;4.20;;;28.00;1.00;;;;;;5081366;28;20480;-79
2021/08/14 09:51:52;;;;;;;6.73;3.90;;;28.70;1.00;;;;;;5077551;28;20497;-80
2021/08/14 09:54:19;;;;;;;6.63;4.10;;;29.20;1.00;;;;;;5079535;28;20445;-79
2021/08/14 09:56:46;;;;;;;4.77;3.53;;;30.40;1.00;;;;;;5078688;28;20449;-79
2021/08/14 09:59:17;;;;;;;5.73;3.87;;;31.50;1.00;;;;;;5080487;28;20434;-79
2021/08/14 10:01:44;;;;;;;4.93;4.00;;;31.70;1.00;;;;;;5085935;28;20447;-80
2021/08/14 10:04:11;;;;;;;5.67;3.97;;;31.20;1.00;;;;;;5084429;28;22552;-80
2021/08/14 10:06:40;;;;;;;5.90;4.20;;;30.40;1.00;;;;;;5078953;28;20581;-79
2021/08/14 10:09:07;;;;;;;5.30;3.87;;;30.30;1.00;;;;;;5080726;28;20471;-79
2021/08/14 10:11:36;;;;;;;8.20;4.20;;;30.10;1.00;;;;;;5080455;28;20453;-79
2021/08/14 10:14:04;;;;;;;4.67;3.23;;;30.20;1.00;;;;;;5079380;28;20540;-80
2021/08/14 10:16:33;;;;;;;8.70;4.70;;;30.50;1.00;;;;;;5066218;28;20448;-80
2021/08/14 10:19:02;;;;;;;4.97;3.87;;;30.00;1.00;;;;;;5094826;28;20446;-78
2021/08/14 10:21:28;;;;;;;6.00;4.30;;;29.80;1.00;;;;;;5104124;28;20508;-79
2021/08/14 10:23:59;;;;;;;6.03;3.83;;;30.60;1.00;;;;;;5080779;28;20459;-78
2021/08/14 10:26:30;;;;;;;6.00;3.30;;;31.50;1.00;;;;;;5097253;28;20434;-79
2021/08/14 10:28:58;;;;;;;6.50;3.90;;;32.60;1.00;;;;;;5103041;27;20462;-79
2021/08/14 10:31:47;;;;;;;4.73;3.17;;;32.20;1.00;;;;;;5097106;28;20544;-79
2021/08/14 10:34:31;;;;;;;4.03;3.20;;;31.30;1.00;;;;;;5094053;27;20419;-79
2021/08/14 10:36:58;;;;;;;5.70;3.73;;;32.10;1.00;;;;;;5079434;28;20411;-80
2021/08/14 10:39:26;;;;;;;4.57;3.40;;;32.60;1.00;;;;;;5081644;28;20470;-80
2021/08/14 10:41:58;;;;;;;4.17;3.33;;;32.60;1.00;;;;;;5079367;28;20522;-79
2021/08/14 10:44:45;;;;;;;4.97;3.87;;;33.20;1.00;;;;;;5079560;28;20423;-82
2021/08/14 10:47:44;;;;;;;4.93;3.53;;;34.50;1.00;;;;;;5079568;28;20482;-80
2021/08/14 10:50:57;;;;;;;5.00;3.70;;;35.30;1.00;;;;;;5061571;28;21325;-81
2021/08/14 10:53:24;;;;;;;5.80;4.20;;;36.10;1.00;;;;;;5003881;28;20414;-80
2021/08/14 10:55:54;;;;;;;7.40;3.40;;;36.50;1.00;;;;;;5060843;28;20502;-80
2021/08/14 10:58:23;;;;;;;8.03;4.00;;;36.70;1.00;;;;;;5083208;28;20447;-82
2021/08/14 11:00:51;;;;;;;6.20;3.50;;;36.80;1.00;;;;;;5080495;28;20468;-80
2021/08/14 11:03:30;;;;;;;4.70;4.20;;;36.30;1.00;;;;;;5080009;28;20534;-81
2021/08/14 11:06:24;;;;;;;4.13;3.17;;;34.90;1.00;;;;;;5063065;28;20437;-82
2021/08/14 11:08:50;;;;;;;6.10;3.23;;;33.90;1.00;;;;;;5080273;28;20475;-79
2021/08/14 11:11:37;;;;;;;3.80;3.20;;;34.60;1.00;;;;;;5065640;28;20433;-79
2021/08/14 11:14:11;;;;;;;6.40;3.70;;;35.40;1.00;;;;;;5080815;28;21435;-78
2021/08/14 11:17:01;;;;;;;5.10;4.10;;;36.30;1.00;;;;;;5079801;28;20957;-79
2021/08/14 11:19:53;;;;;;;4.60;3.30;;;37.20;1.00;;;;;;5075808;28;20454;-79
2021/08/14 11:22:31;;;;;;;6.00;3.23;;;37.40;1.00;;;;;;5084359;28;20450;-80
2021/08/14 11:25:01;;;;;;;4.50;3.23;;;37.20;1.00;;;;;;5082692;28;21335;-81
2021/08/14 11:27:30;;;;;;;5.40;3.50;;;37.90;1.00;;;;;;5081955;28;21659;-80
2021/08/14 11:29:59;;;;;;;5.40;3.63;;;37.90;1.00;;;;;;5079394;28;20431;-79
2021/08/14 11:32:27;;;;;;;4.90;3.63;;;37.60;1.00;;;;;;5078456;28;20410;-78
2021/08/14 11:34:56;;;;;;;4.50;3.00;;;37.90;1.00;;;;;;5081968;28;20510;-79
2021/08/14 11:37:25;;;;;;;3.60;3.30;;;38.20;1.00;;;;;;5087905;27;20483;-81
2021/08/14 11:40:00;;;;;;;4.87;2.90;;;38.80;1.00;;;;;;5080412;28;20513;-80
2021/08/14 11:42:28;;;;;;;5.23;3.60;;;38.90;1.00;;;;;;5065684;28;20537;-77
2021/08/14 11:44:56;;;;;;;3.67;3.20;;;38.60;1.00;;;;;;5079027;28;20550;-79
2021/08/14 11:47:35;;;;;;;4.57;3.40;;;38.70;1.00;;;;;;5076830;28;20471;-77
2021/08/14 11:50:06;;;;;;;4.57;3.70;;;39.10;1.00;;;;;;5079511;28;20482;-77
2021/08/14 11:52:32;;;;;;;5.63;3.90;;;39.40;1.00;;;;;;5065358;28;20471;-79
2021/08/14 11:55:02;;;;;;;5.33;3.80;;;39.30;1.00;;;;;;5081645;28;20475;-79
2021/08/14 11:57:35;;;;;;;6.60;3.50;;;39.40;1.00;;;;;;5072399;28;20434;-81
2021/08/14 12:00:06;;;;;;;6.07;3.70;;;39.30;1.00;;;;;;5092095;28;20432;-80
2021/08/14 12:02:32;;;;;;;3.50;3.10;;;39.30;1.00;;;;;;5090257;28;20447;-82
2021/08/14 12:04:59;;;;;;;4.40;3.30;;;39.50;1.00;;;;;;5086736;28;20467;-80
2021/08/14 12:07:28;;;;;;;4.70;3.30;;;39.60;1.00;;;;;;5084373;28;20479;-80
2021/08/14 12:09:59;;;;;;;4.00;3.60;;;40.10;1.00;;;;;;5083067;28;20454;-80
2021/08/14 12:12:27;;;;;;;4.37;3.30;;;40.40;1.00;;;;;;5082879;28;20443;-78
2021/08/14 12:14:55;;;;;;;7.33;3.90;;;40.60;1.00;;;;;;5097123;28;20420;-77
2021/08/14 12:17:22;;;;;;;4.23;3.70;;;41.10;1.00;;;;;;5105943;28;20422;-78
2021/08/14 12:19:51;;;;;;;6.03;3.70;;;41.60;1.00;;;;;;5103077;27;20407;-77
2021/08/14 12:22:18;;;;;;;5.53;4.60;;;41.10;1.00;;;;;;5090372;27;20402;-77
2021/08/14 12:24:48;;;;;;;4.13;3.43;;;41.10;1.00;;;;;;5108801;27;20406;-77
2021/08/14 12:27:29;;;;;;;4.93;3.73;;;41.50;1.00;;;;;;5109110;28;20407;-77
2021/08/14 12:30:14;;;;;;;5.30;3.63;;;41.70;1.00;;;;;;5106646;28;20434;-78
2021/08/14 12:32:41;;;;;;;4.10;3.47;;;41.40;1.00;;;;;;5081757;28;20435;-78
2021/08/14 12:35:15;;;;;;;4.40;3.70;;;41.40;1.00;;;;;;5110135;28;20446;-78
2021/08/14 12:37:42;;;;;;;5.53;4.70;;;41.60;1.00;;;;;;5108317;27;20477;-77
2021/08/14 12:40:12;;;;;;;5.60;3.43;;;42.10;1.00;;;;;;5104644;27;20467;-78
2021/08/14 12:42:39;;;;;;;5.67;3.17;;;41.60;1.00;;;;;;5105842;27;20427;-78
2021/08/14 12:45:16;;;;;;;4.53;3.10;;;41.70;1.00;;;;;;5104490;27;20419;-79
2021/08/14 12:47:44;;;;;;;7.20;3.50;;;41.90;1.00;;;;;;5098046;28;20450;-77
2021/08/14 12:50:14;;;;;;;6.63;4.23;;;42.00;1.00;;;;;;5102861;28;20829;-78
2021/08/14 12:52:41;;;;;;;7.50;5.90;;;42.00;1.00;;;;;;5102885;28;20420;-76
2021/08/14 12:55:09;;;;;;;5.27;3.80;;;41.90;1.00;;;;;;5095309;28;20485;-77
2021/08/14 12:57:37;;;;;;;3.90;3.07;;;41.50;1.00;;;;;;5089902;28;21089;-78
2021/08/14 13:00:05;;;;;;;3.43;3.13;;;41.20;1.00;;;;;;5070378;28;20407;-77
2021/08/14 13:02:31;;;;;;;3.40;2.80;;;41.30;1.00;;;;;;5084553;28;20550;-77